createdAt,value
2018-10-16T00:01:15.043Z,5.27
2018-10-16T00:03:42.538Z,4.97
2018-10-16T00:06:09.988Z,5.87
2018-10-16T00:08:37.435Z,6.53
2018-10-16T00:11:04.928Z,6.83
2018-10-16T00:13:32.487Z,7.17
2018-10-16T00:16:00.057Z,6.93
2018-10-16T00:18:27.522Z,6.80
2018-10-16T00:20:54.970Z,7.47
2018-10-16T00:23:22.539Z,6.63
2018-10-16T00:25:49.995Z,6.60
2018-10-16T00:28:18.611Z,7.27
2018-10-16T00:30:46.163Z,7.37
2018-10-16T00:33:13.615Z,7.07
2018-10-16T00:35:41.384Z,6.03
2018-10-16T00:38:08.988Z,7.13
2018-10-16T00:40:36.411Z,6.20
2018-10-16T00:43:04.182Z,6.30
2018-10-16T00:45:31.652Z,6.67
2018-10-16T00:47:59.104Z,6.50
2018-10-16T00:50:26.783Z,7.20
2018-10-16T00:52:55.775Z,6.23
2018-10-16T00:55:23.234Z,6.93
2018-10-16T00:57:50.691Z,7.13
2018-10-16T01:00:18.262Z,6.90
2018-10-16T01:02:45.713Z,6.40
2018-10-16T01:05:13.175Z,6.13
2018-10-16T01:07:40.738Z,7.53
2018-10-16T01:10:08.211Z,6.50
2018-10-16T01:12:36.893Z,7.00
2018-10-16T01:15:04.463Z,6.57
2018-10-16T01:17:31.911Z,7.50
2018-10-16T01:19:59.487Z,6.77
2018-10-16T01:22:26.955Z,7.30
2018-10-16T01:24:54.408Z,7.60
2018-10-16T01:27:23.347Z,7.20
2018-10-16T01:29:51.929Z,7.83
2018-10-16T01:32:20.142Z,7.20
2018-10-16T01:34:47.601Z,7.60
2018-10-16T01:37:16.187Z,7.13
2018-10-16T01:39:43.671Z,7.17
2018-10-16T01:42:11.127Z,7.07
2018-10-16T01:44:38.626Z,7.17
2018-10-16T01:47:06.375Z,7.00
2018-10-16T01:49:33.842Z,6.77
2018-10-16T01:52:01.295Z,7.10
2018-10-16T01:54:28.761Z,7.90
2018-10-16T01:56:56.221Z,7.90
2018-10-16T01:59:23.692Z,7.80
2018-10-16T02:01:51.255Z,6.87
2018-10-16T02:04:18.813Z,6.77
2018-10-16T02:06:46.382Z,7.30
2018-10-16T02:09:13.840Z,7.40
2018-10-16T02:11:41.608Z,7.53
2018-10-16T02:14:09.060Z,7.27
2018-10-16T02:16:36.515Z,7.60
2018-10-16T02:19:04.000Z,7.40
2018-10-16T02:21:31.458Z,7.73
2018-10-16T02:23:58.907Z,7.83
2018-10-16T02:26:26.371Z,8.17
2018-10-16T02:28:53.826Z,8.33
2018-10-16T02:31:21.292Z,8.30
2018-10-16T02:33:48.777Z,7.37
2018-10-16T02:36:16.247Z,7.37
2018-10-16T02:38:44.830Z,8.20
2018-10-16T02:41:12.384Z,8.73
2018-10-16T02:43:39.839Z,8.40
2018-10-16T02:46:07.622Z,7.90
2018-10-16T02:48:35.097Z,8.40
2018-10-16T02:51:02.661Z,8.40
2018-10-16T02:53:30.125Z,7.60
2018-10-16T02:55:57.880Z,7.83
2018-10-16T02:58:25.449Z,8.03
2018-10-16T03:00:52.905Z,8.03
2018-10-16T03:03:20.371Z,7.63
2018-10-16T03:05:47.833Z,8.93
2018-10-16T03:08:15.285Z,8.20
2018-10-16T03:10:42.739Z,7.97
2018-10-16T03:13:11.806Z,8.33
2018-10-16T03:15:40.409Z,8.47
2018-10-16T03:18:07.963Z,8.10
2018-10-16T03:20:36.663Z,8.27
2018-10-16T03:23:04.040Z,6.90
2018-10-16T03:25:31.523Z,7.80
2018-10-16T03:27:58.988Z,7.87
2018-10-16T03:30:26.461Z,7.73
2018-10-16T03:32:55.029Z,8.37
2018-10-16T03:35:22.479Z,8.70
2018-10-16T03:37:49.954Z,7.70
2018-10-16T03:40:18.543Z,8.83
2018-10-16T03:42:46.012Z,9.40
2018-10-16T03:45:14.280Z,9.20
2018-10-16T03:47:41.885Z,9.33
2018-10-16T03:50:09.333Z,9.40
2018-10-16T03:52:37.563Z,8.13
2018-10-16T03:55:05.020Z,7.73
2018-10-16T03:57:32.520Z,9.27
2018-10-16T03:59:59.976Z,9.47
2018-10-16T04:02:27.438Z,8.27
2018-10-16T04:04:56.136Z,9.60
2018-10-16T04:07:23.601Z,8.90
2018-10-16T04:09:51.054Z,8.03
2018-10-16T04:12:18.521Z,8.30
2018-10-16T04:14:46.006Z,8.80
2018-10-16T04:17:14.232Z,8.70
2018-10-16T04:19:41.699Z,8.53
2018-10-16T04:22:09.167Z,8.90
2018-10-16T04:24:36.653Z,9.00
2018-10-16T04:27:04.114Z,8.17
2018-10-16T04:29:31.595Z,7.67
2018-10-16T04:31:59.129Z,7.80
2018-10-16T04:34:26.599Z,8.17
2018-10-16T04:36:54.162Z,7.07
2018-10-16T04:39:22.963Z,8.47
2018-10-16T04:41:51.855Z,8.60
2018-10-16T04:44:20.663Z,8.23
2018-10-16T04:46:49.539Z,8.80
2018-10-16T04:49:18.360Z,9.00
2018-10-16T04:51:46.955Z,8.60
2018-10-16T04:54:15.201Z,9.27
2018-10-16T04:56:42.757Z,8.83
2018-10-16T04:59:10.332Z,7.67
2018-10-16T05:01:37.784Z,9.37
2018-10-16T05:04:06.167Z,10.50
2018-10-16T05:06:34.350Z,10.20
2018-10-16T05:09:01.910Z,9.93
2018-10-16T05:11:29.372Z,9.97
2018-10-16T05:13:56.931Z,8.83
2018-10-16T05:16:24.386Z,9.90
2018-10-16T05:18:53.257Z,10.50
2018-10-16T05:21:22.091Z,10.27
2018-10-16T05:23:50.310Z,9.20
2018-10-16T05:26:17.835Z,10.37
2018-10-16T05:28:46.425Z,10.60
2018-10-16T05:31:13.976Z,10.60
2018-10-16T05:33:41.443Z,10.13
2018-10-16T05:36:08.896Z,9.47
2018-10-16T05:38:36.363Z,10.57
2018-10-16T05:41:03.851Z,10.10
2018-10-16T05:43:31.589Z,10.23
2018-10-16T05:45:59.079Z,10.70
2018-10-16T05:48:26.539Z,10.47
2018-10-16T05:50:54.005Z,11.00
2018-10-16T05:53:21.593Z,11.23
2018-10-16T05:55:49.116Z,10.97
2018-10-16T05:58:16.578Z,9.47
2018-10-16T06:00:44.043Z,10.63
2018-10-16T06:03:13.021Z,11.07
2018-10-16T06:05:40.557Z,10.47
2018-10-16T06:08:08.060Z,10.13
2018-10-16T06:10:36.236Z,10.23
2018-10-16T06:13:03.803Z,11.03
2018-10-16T06:15:32.715Z,10.47
2018-10-16T06:18:00.260Z,10.07
2018-10-16T06:20:27.723Z,10.90
2018-10-16T06:22:55.176Z,8.93
2018-10-16T06:25:22.943Z,7.73
2018-10-16T06:27:51.580Z,10.00
2018-10-16T06:30:20.246Z,10.13
2018-10-16T06:32:47.648Z,10.53
2018-10-16T06:35:15.107Z,9.67
2018-10-16T06:37:42.576Z,10.30
2018-10-16T06:40:10.080Z,9.80
2018-10-16T06:42:37.648Z,10.33
2018-10-16T06:45:05.104Z,9.63
2018-10-16T06:47:32.604Z,10.67
2018-10-16T06:50:00.023Z,10.53
2018-10-16T06:52:27.597Z,9.53
2018-10-16T06:54:55.077Z,9.67
2018-10-16T06:57:22.618Z,10.13
2018-10-16T06:59:50.080Z,10.77
2018-10-16T07:02:17.535Z,9.90
2018-10-16T07:04:46.504Z,10.67
2018-10-16T07:07:14.137Z,11.03
2018-10-16T07:09:41.466Z,8.00
2018-10-16T07:12:09.236Z,10.50
2018-10-16T07:14:36.687Z,9.80
2018-10-16T07:17:04.261Z,9.53
2018-10-16T07:19:31.735Z,11.13
2018-10-16T07:21:59.196Z,9.50
2018-10-16T07:24:26.744Z,10.63
2018-10-16T07:26:54.308Z,10.50
2018-10-16T07:29:21.878Z,12.20
2018-10-16T07:31:49.375Z,11.70
2018-10-16T07:34:17.613Z,11.80
2018-10-16T07:36:45.189Z,11.13
2018-10-16T07:39:12.660Z,12.13
2018-10-16T07:41:40.202Z,12.87
2018-10-16T07:44:07.666Z,12.47
2018-10-16T07:46:35.125Z,13.03
2018-10-16T07:49:02.702Z,13.63
2018-10-16T07:51:30.153Z,11.57
2018-10-16T07:53:58.757Z,9.17
2018-10-16T07:56:26.217Z,13.23
2018-10-16T07:58:53.681Z,10.77
2018-10-16T08:01:21.242Z,10.00
2018-10-16T08:03:48.801Z,10.70
2018-10-16T08:06:16.258Z,13.03
2018-10-16T08:08:44.009Z,12.67
2018-10-16T08:11:11.497Z,10.60
2018-10-16T08:13:38.962Z,11.43
2018-10-16T08:16:06.430Z,13.93
2018-10-16T08:18:33.980Z,14.57
2018-10-16T08:21:01.543Z,13.93
2018-10-16T08:23:29.113Z,13.43
2018-10-16T08:25:56.574Z,10.23
2018-10-16T08:28:24.037Z,9.60
2018-10-16T08:30:51.499Z,8.10
2018-10-16T08:33:18.970Z,11.03
2018-10-16T08:35:47.958Z,12.30
2018-10-16T08:38:15.407Z,12.67
2018-10-16T08:40:42.900Z,11.93
2018-10-16T08:43:10.450Z,15.07
2018-10-16T08:49:01.279Z,18.00
2018-10-16T08:51:29.525Z,13.07
2018-10-16T08:53:57.044Z,15.23
2018-10-16T08:56:25.676Z,14.70
2018-10-16T08:58:54.367Z,12.90
2018-10-16T09:01:22.239Z,15.53
2018-10-16T09:03:49.691Z,12.20
2018-10-16T09:06:17.272Z,13.07
2018-10-16T09:08:44.748Z,13.37
2018-10-16T09:11:12.303Z,14.37
2018-10-16T09:13:39.789Z,15.50
2018-10-16T09:16:08.025Z,13.37
2018-10-16T09:18:35.473Z,12.20
2018-10-16T09:21:02.944Z,13.73
2018-10-16T09:23:31.883Z,16.00
2018-10-16T09:26:00.480Z,14.03
2018-10-16T09:28:29.075Z,14.23
2018-10-16T09:30:56.580Z,13.47
2018-10-16T09:33:24.052Z,14.40
2018-10-16T09:35:51.521Z,12.73
2018-10-16T09:38:19.282Z,15.53
2018-10-16T09:40:46.851Z,15.67
2018-10-16T09:43:15.460Z,14.97
2018-10-16T09:45:44.063Z,14.03
2018-10-16T09:48:12.651Z,13.40
2018-10-16T09:50:40.886Z,14.63
2018-10-16T09:53:08.352Z,15.27
2018-10-16T09:55:35.812Z,14.50
2018-10-16T09:58:04.499Z,15.73
2018-10-16T10:00:32.282Z,15.53
2018-10-16T10:02:59.736Z,16.47
2018-10-16T10:05:28.487Z,14.57
2018-10-16T10:07:56.296Z,14.60
2018-10-16T10:10:24.884Z,15.17
2018-10-16T10:12:52.345Z,15.20
2018-10-16T10:15:21.037Z,15.27
2018-10-16T10:17:49.651Z,15.97
2018-10-16T10:20:17.099Z,14.97
2018-10-16T10:22:44.662Z,14.47
2018-10-16T10:25:13.381Z,14.13
2018-10-16T10:27:40.914Z,15.67
2018-10-16T10:30:08.472Z,14.63
2018-10-16T10:32:36.035Z,13.83
2018-10-16T10:35:03.493Z,12.93
2018-10-16T10:37:31.215Z,13.50
2018-10-16T10:39:58.793Z,12.73
2018-10-16T10:42:26.293Z,13.90
2018-10-16T10:44:53.772Z,14.53
2018-10-16T10:47:21.226Z,14.10
2018-10-16T10:49:48.845Z,12.87
2018-10-16T10:52:16.350Z,13.43
2018-10-16T10:54:44.952Z,12.77
2018-10-16T10:57:12.488Z,13.30
2018-10-16T10:59:41.021Z,12.53
2018-10-16T11:02:09.683Z,12.57
2018-10-16T11:04:37.907Z,12.07
2018-10-16T11:07:06.553Z,13.20
2018-10-16T11:09:35.161Z,12.67
2018-10-16T11:12:03.420Z,12.77
2018-10-16T11:14:30.891Z,11.17
2018-10-16T11:16:58.445Z,13.37
2018-10-16T11:19:25.918Z,13.30
2018-10-16T11:21:53.465Z,11.80
2018-10-16T11:24:21.019Z,13.13
2018-10-16T11:26:48.591Z,10.53
2018-10-16T11:29:16.152Z,10.87
2018-10-16T11:31:43.725Z,9.83
2018-10-16T11:34:11.284Z,9.87
2018-10-16T11:36:38.743Z,10.50
2018-10-16T11:39:06.264Z,10.27
2018-10-16T11:41:33.682Z,9.60
2018-10-16T11:44:02.373Z,9.47
2018-10-16T11:46:30.135Z,8.57
2018-10-16T11:48:57.589Z,8.10
2018-10-16T11:51:25.060Z,9.30
2018-10-16T11:53:54.369Z,9.07
2018-10-16T11:56:21.828Z,7.57
2018-10-16T11:58:50.520Z,8.60
2018-10-16T12:01:18.076Z,8.10
2018-10-16T12:03:46.355Z,7.63
2018-10-16T12:06:13.954Z,8.13
2018-10-16T12:08:41.389Z,8.40
2018-10-16T12:11:08.921Z,7.03
2018-10-16T12:13:36.313Z,6.40
2018-10-16T12:16:04.821Z,7.17
2018-10-16T12:18:33.041Z,6.20
2018-10-16T12:21:00.582Z,5.67
2018-10-16T12:23:28.048Z,6.00
2018-10-16T12:25:55.885Z,4.97
2018-10-16T12:28:24.495Z,4.13
2018-10-16T12:30:52.735Z,4.10
2018-10-16T12:33:20.205Z,4.90
2018-10-16T12:35:47.667Z,4.43
2018-10-16T12:38:15.134Z,4.00
2018-10-16T12:40:42.584Z,4.80
2018-10-16T12:43:10.095Z,4.20
2018-10-16T12:45:37.531Z,4.03
2018-10-16T12:48:05.019Z,4.30
2018-10-16T12:50:34.169Z,5.37
2018-10-16T12:53:02.785Z,4.60
2018-10-16T12:55:30.331Z,4.13
2018-10-16T12:57:57.897Z,4.70
2018-10-16T13:00:25.459Z,4.50
2018-10-16T13:02:52.961Z,4.80
2018-10-16T13:05:20.408Z,5.17
2018-10-16T13:07:48.628Z,4.60
2018-10-16T13:10:16.127Z,4.93
2018-10-16T13:12:43.584Z,4.47
2018-10-16T13:15:11.159Z,4.07
2018-10-16T13:17:38.603Z,4.07
2018-10-16T13:20:06.136Z,4.37
2018-10-16T13:22:33.547Z,4.40
2018-10-16T13:25:01.103Z,4.63
2018-10-16T13:27:28.675Z,4.43
2018-10-16T13:29:56.194Z,4.50
2018-10-16T13:32:23.605Z,5.10
2018-10-16T13:34:51.184Z,4.47
2018-10-16T13:37:18.719Z,4.50
2018-10-16T13:39:46.228Z,3.87
2018-10-16T13:42:14.501Z,4.47
2018-10-16T13:44:42.816Z,4.80
2018-10-16T13:47:10.309Z,4.40
2018-10-16T13:49:37.818Z,4.40
2018-10-16T13:52:06.147Z,4.03
2018-10-16T13:54:34.053Z,4.33
2018-10-16T13:57:01.594Z,4.20
2018-10-16T13:59:29.047Z,4.43
2018-10-16T14:01:56.603Z,4.47
2018-10-16T14:04:24.060Z,4.30
2018-10-16T14:06:51.585Z,3.70
2018-10-16T14:09:19.866Z,4.20
2018-10-16T14:11:48.084Z,3.53
2018-10-16T14:14:16.816Z,4.03
2018-10-16T14:16:44.344Z,4.20
2018-10-16T14:19:12.568Z,3.80
2018-10-16T14:21:40.816Z,4.83
2018-10-16T14:24:08.293Z,4.23
2018-10-16T14:26:35.836Z,4.70
2018-10-16T14:29:03.222Z,5.33
2018-10-16T14:31:30.841Z,5.63
2018-10-16T14:33:58.449Z,5.20
2018-10-16T14:36:25.813Z,4.50
2018-10-16T14:38:53.284Z,4.03
2018-10-16T14:41:20.823Z,4.00
2018-10-16T14:43:48.385Z,4.70
2018-10-16T14:46:16.035Z,5.13
2018-10-16T14:48:44.209Z,6.97
2018-10-16T14:51:11.671Z,5.70
2018-10-16T14:53:39.156Z,13.40
2018-10-16T14:56:07.455Z,10.23
2018-10-16T14:58:34.885Z,28.57
2018-10-16T15:01:03.704Z,12.50
2018-10-16T15:03:31.195Z,7.63
2018-10-16T15:06:00.064Z,16.40
2018-10-16T15:08:27.619Z,8.73
2018-10-16T15:10:56.215Z,7.70
2018-10-16T15:13:23.677Z,16.07
2018-10-16T15:15:51.231Z,12.07
2018-10-16T15:18:18.699Z,21.87
2018-10-16T15:20:46.163Z,15.57
2018-10-16T15:23:13.624Z,11.27
2018-10-16T15:25:41.205Z,16.53
2018-10-16T15:28:09.525Z,13.00
2018-10-16T15:30:36.926Z,9.47
2018-10-16T15:33:05.911Z,7.07
2018-10-16T15:35:33.389Z,7.17
2018-10-16T15:38:00.948Z,7.10
2018-10-16T15:40:28.424Z,7.53
2018-10-16T15:42:56.696Z,8.90
2018-10-16T15:45:25.687Z,10.57
2018-10-16T15:47:53.213Z,6.93
2018-10-16T15:50:20.692Z,5.83
2018-10-16T15:52:48.755Z,6.53
2018-10-16T15:55:17.364Z,6.30
2018-10-16T15:57:44.901Z,5.90
2018-10-16T16:00:12.402Z,6.77
2018-10-16T16:02:40.060Z,5.40
2018-10-16T16:05:07.533Z,6.60
2018-10-16T16:07:34.975Z,5.90
2018-10-16T16:10:02.598Z,5.93
2018-10-16T16:12:30.034Z,5.67
2018-10-16T16:14:57.468Z,5.80
2018-10-16T16:17:25.047Z,6.00
2018-10-16T16:19:52.511Z,6.03
2018-10-16T16:22:19.976Z,5.93
2018-10-16T16:24:47.531Z,6.50
2018-10-16T16:27:15.090Z,5.23
2018-10-16T16:29:42.572Z,5.30
2018-10-16T16:32:10.206Z,4.93
2018-10-16T16:34:38.744Z,4.27
2018-10-16T16:37:07.546Z,4.90
2018-10-16T16:39:36.618Z,5.23
2018-10-16T16:42:05.280Z,5.00
2018-10-16T16:44:33.919Z,4.60
2018-10-16T16:47:02.498Z,4.53
2018-10-16T16:49:31.166Z,5.50
2018-10-16T16:51:58.697Z,4.80
2018-10-16T16:54:26.953Z,5.67
2018-10-16T16:56:55.283Z,4.77
2018-10-16T16:59:22.769Z,7.23
2018-10-16T17:01:50.214Z,5.63
2018-10-16T17:04:17.782Z,6.37
2018-10-16T17:06:45.229Z,6.17
2018-10-16T17:09:12.683Z,5.53
2018-10-16T17:11:40.146Z,5.43
2018-10-16T17:14:07.688Z,6.13
2018-10-16T17:16:36.240Z,5.67
2018-10-16T17:19:04.495Z,5.90
2018-10-16T17:21:33.297Z,5.63
2018-10-16T17:24:06.204Z,5.40
2018-10-16T17:26:34.471Z,5.43
2018-10-16T17:29:01.907Z,5.87
2018-10-16T17:31:29.369Z,6.43
2018-10-16T17:33:57.976Z,6.73
2018-10-16T17:36:25.416Z,5.70
2018-10-16T17:38:52.921Z,5.90
2018-10-16T17:41:20.349Z,5.53
2018-10-16T17:43:47.818Z,6.20
2018-10-16T17:46:15.288Z,5.87
2018-10-16T17:48:42.848Z,6.87
2018-10-16T17:51:11.582Z,5.83
2018-10-16T17:53:39.088Z,5.60
2018-10-16T17:56:06.647Z,6.03
2018-10-16T17:58:34.119Z,6.33
2018-10-16T18:01:01.573Z,6.40
2018-10-16T18:03:29.861Z,5.90
2018-10-16T18:05:57.457Z,5.60
2018-10-16T18:08:25.707Z,6.30
2018-10-16T18:10:53.176Z,6.30
2018-10-16T18:13:20.635Z,6.60
2018-10-16T18:15:48.196Z,5.93
2018-10-16T18:18:17.179Z,6.50
2018-10-16T18:20:45.324Z,6.40
2018-10-16T18:23:12.777Z,5.60
2018-10-16T18:25:40.299Z,5.80
2018-10-16T18:28:07.756Z,5.90
2018-10-16T18:30:35.211Z,6.07
2018-10-16T18:33:02.838Z,6.10
2018-10-16T18:35:30.239Z,6.00
2018-10-16T18:37:57.700Z,6.30
2018-10-16T18:40:25.192Z,6.17
2018-10-16T18:42:53.408Z,5.97
2018-10-16T18:45:20.921Z,6.03
2018-10-16T18:47:48.379Z,5.93
2018-10-16T18:50:15.835Z,6.30
2018-10-16T18:52:43.292Z,5.73
2018-10-16T18:55:10.767Z,6.80
2018-10-16T18:57:38.323Z,6.00
2018-10-16T19:00:05.773Z,5.87
2018-10-16T19:02:34.480Z,5.60
2018-10-16T19:05:02.706Z,5.90
2018-10-16T19:07:30.216Z,5.90
2018-10-16T19:09:57.798Z,5.93
2018-10-16T19:12:25.282Z,4.57
2018-10-16T19:14:53.545Z,6.40
2018-10-16T19:17:21.131Z,5.90
2018-10-16T19:19:49.953Z,7.10
2018-10-16T19:22:17.458Z,6.60
2018-10-16T19:24:44.977Z,7.13
2018-10-16T19:27:12.496Z,6.37
2018-10-16T19:29:41.089Z,6.57
2018-10-16T19:32:09.366Z,6.90
2018-10-16T19:34:38.056Z,6.17
2018-10-16T19:37:05.606Z,6.80
2018-10-16T19:39:33.103Z,6.80
2018-10-16T19:42:01.701Z,7.03
2018-10-16T19:44:29.215Z,7.03
2018-10-16T19:46:56.778Z,6.87
2018-10-16T19:49:24.346Z,7.60
2018-10-16T19:51:51.798Z,6.73
2018-10-16T19:54:19.379Z,8.20
2018-10-16T19:56:46.830Z,8.33
2018-10-16T19:59:14.408Z,7.33
2018-10-16T20:01:41.956Z,7.23
2018-10-16T20:04:09.424Z,9.10
2018-10-16T20:06:36.991Z,7.70
2018-10-16T20:09:04.472Z,8.63
2018-10-16T20:11:33.042Z,8.60
2018-10-16T20:14:00.514Z,8.13
2018-10-16T20:16:28.059Z,8.07
2018-10-16T20:18:55.536Z,7.53
2018-10-16T20:21:22.996Z,9.70
2018-10-16T20:23:50.554Z,9.37
2018-10-16T20:26:18.804Z,11.23
2018-10-16T20:28:46.260Z,9.57
2018-10-16T20:31:13.766Z,11.23
2018-10-16T20:33:42.437Z,10.20
2018-10-16T20:36:09.900Z,10.10
2018-10-16T20:38:37.467Z,10.83
2018-10-16T20:41:05.043Z,10.30
2018-10-16T20:43:32.508Z,10.23
2018-10-16T20:45:59.983Z,10.93
2018-10-16T20:48:27.535Z,10.43
2018-10-16T20:50:54.999Z,10.53
2018-10-16T20:53:22.461Z,9.93
2018-10-16T20:55:50.012Z,10.50
2018-10-16T20:58:17.572Z,10.10
2018-10-16T21:00:45.046Z,10.70
2018-10-16T21:03:12.498Z,9.87
2018-10-16T21:05:41.115Z,9.50
2018-10-16T21:08:10.208Z,10.20
2018-10-16T21:10:37.664Z,9.53
2018-10-16T21:13:05.150Z,10.17
2018-10-16T21:15:32.682Z,9.37
2018-10-16T21:18:00.138Z,9.37
2018-10-16T21:20:27.699Z,10.77
2018-10-16T21:22:55.321Z,10.00
2018-10-16T21:25:22.737Z,10.43
2018-10-16T21:27:50.185Z,10.47
2018-10-16T21:30:17.639Z,9.50
2018-10-16T21:32:45.117Z,11.07
2018-10-16T21:35:12.679Z,9.43
2018-10-16T21:37:40.140Z,11.20
2018-10-16T21:40:07.591Z,10.07
2018-10-16T21:42:35.058Z,10.03
2018-10-16T21:45:02.511Z,11.67
2018-10-16T21:47:29.963Z,10.10
2018-10-16T21:49:57.734Z,10.17
2018-10-16T21:52:25.218Z,9.43
2018-10-16T21:54:52.681Z,9.93
2018-10-16T21:57:20.131Z,10.03
2018-10-16T21:59:47.596Z,10.67
2018-10-16T22:02:15.050Z,11.60
2018-10-16T22:04:42.530Z,10.27
2018-10-16T22:07:10.196Z,11.30
2018-10-16T22:09:37.654Z,11.67
2018-10-16T22:12:05.132Z,10.47
2018-10-16T22:14:32.691Z,10.70
2018-10-16T22:17:00.248Z,9.87
2018-10-16T22:19:27.695Z,11.43
2018-10-16T22:21:55.168Z,7.27
2018-10-16T22:24:22.625Z,10.47
2018-10-16T22:26:50.101Z,9.93
2018-10-16T22:29:17.665Z,9.70
2018-10-16T22:31:45.120Z,11.70
2018-10-16T22:34:12.572Z,11.90
2018-10-16T22:36:40.057Z,11.70
2018-10-16T22:39:07.613Z,11.67
2018-10-16T22:41:35.066Z,11.63
2018-10-16T22:44:02.523Z,11.53
2018-10-16T22:46:30.003Z,11.67
2018-10-16T22:48:57.513Z,10.53
2018-10-16T22:51:24.933Z,10.27
2018-10-16T22:53:52.392Z,12.13
2018-10-16T22:56:19.848Z,12.63
2018-10-16T22:58:47.295Z,12.90
2018-10-16T23:01:15.992Z,12.20
2018-10-16T23:03:43.576Z,11.97
2018-10-16T23:06:11.029Z,11.97
2018-10-16T23:08:38.596Z,12.60
2018-10-16T23:11:06.190Z,12.97
2018-10-16T23:13:33.605Z,11.67
2018-10-16T23:16:01.181Z,12.93
2018-10-16T23:18:28.637Z,10.57
2018-10-16T23:20:57.241Z,11.73
2018-10-16T23:23:25.833Z,12.20
2018-10-16T23:25:53.290Z,12.60
2018-10-16T23:28:21.891Z,13.47
2018-10-16T23:30:49.436Z,13.00
2018-10-16T23:33:16.892Z,12.17
2018-10-16T23:35:44.461Z,12.93
2018-10-16T23:38:11.944Z,12.10
2018-10-16T23:40:39.493Z,12.63
2018-10-16T23:43:06.991Z,12.53
2018-10-16T23:45:34.428Z,11.87
2018-10-16T23:48:01.856Z,13.07
2018-10-16T23:50:29.313Z,12.10
2018-10-16T23:52:56.825Z,12.57
2018-10-16T23:55:24.360Z,12.20
2018-10-16T23:57:51.924Z,12.07
